Henry, Indiana
Current Conditions -  °F | °C
As of 1:53 PM on Sunday 21 Dec 2014 (Local Time) from KMIE Reporting Station
Haze Haze  
Wind Chill: 31°   Ceiling: Unl
Heat Index: 36°   Visibility: 6mi
Dew Point: 27°   Wind: 6mph
Humidity: 70%   Direction: 140°SE
Pressure: 30.2"   Gusts: NA
Location:  39.9231°N, 85.3444°W
Report Text: KMIE 211853Z 14005KT 6SM HZ CLR 02/M03 A3020 RMK AO2 SLP235 T00221028
Loading
Personal Weather Stations






























Interactive Weather Map New forecast layout! Learn more

10-Day Weather Forecast

Advertisements
Track Severe Weather on mobile